createdAt,value
2018-02-02T00:01:55.791Z,1.20
2018-02-02T00:04:23.970Z,0.40
2018-02-02T00:06:52.132Z,0.47
2018-02-02T00:09:20.291Z,0.40
2018-02-02T00:11:48.454Z,0.57
2018-02-02T00:14:17.412Z,0.50
2018-02-02T00:16:45.570Z,0.60
2018-02-02T00:19:13.733Z,2.30
2018-02-02T00:21:41.895Z,0.97
2018-02-02T00:24:10.045Z,0.63
2018-02-02T00:26:38.974Z,0.87
2018-02-02T00:29:07.127Z,1.03
2018-02-02T00:31:35.284Z,0.80
2018-02-02T00:34:04.207Z,0.70
2018-02-02T00:36:32.369Z,1.30
2018-02-02T00:39:00.553Z,0.83
2018-02-02T00:41:28.778Z,1.30
2018-02-02T00:43:56.933Z,1.10
2018-02-02T00:46:25.121Z,1.10
2018-02-02T00:48:53.357Z,1.00
2018-02-02T00:51:26.936Z,1.00
2018-02-02T00:53:55.099Z,1.00
2018-02-02T00:56:24.031Z,0.60
2018-02-02T00:58:52.190Z,0.80
2018-02-02T01:01:20.355Z,0.73
2018-02-02T01:03:48.531Z,1.03
2018-02-02T01:06:16.702Z,0.50
2018-02-02T01:08:44.865Z,0.60
2018-02-02T01:11:13.789Z,0.60
2018-02-02T01:13:41.945Z,0.60
2018-02-02T01:16:10.106Z,0.50
2018-02-02T01:18:39.062Z,0.60
2018-02-02T01:21:07.225Z,0.60
2018-02-02T01:23:36.150Z,0.60
2018-02-02T01:26:05.085Z,0.43
2018-02-02T01:28:33.245Z,0.50
2018-02-02T01:31:01.434Z,0.40
2018-02-02T01:33:29.606Z,0.70
2018-02-02T01:35:57.779Z,0.60
2018-02-02T01:38:25.962Z,0.50
2018-02-02T01:40:54.131Z,0.50
2018-02-02T01:43:22.295Z,0.63
2018-02-02T01:45:50.490Z,2.60
2018-02-02T01:48:21.659Z,1.37
2018-02-02T01:50:50.689Z,1.07
2018-02-02T01:53:18.873Z,1.10
2018-02-02T01:55:47.795Z,1.70
2018-02-02T01:58:15.979Z,1.70
2018-02-02T02:00:44.213Z,1.47
2018-02-02T02:03:13.146Z,1.60
2018-02-02T02:05:41.325Z,2.60
2018-02-02T02:08:09.508Z,2.30
2018-02-02T02:10:37.679Z,2.50
2018-02-02T02:13:05.837Z,2.90
2018-02-02T02:15:34.011Z,2.70
2018-02-02T02:18:02.176Z,2.60
2018-02-02T02:20:30.352Z,3.07
2018-02-02T02:22:58.516Z,2.80
2018-02-02T02:25:26.685Z,4.00
2018-02-02T02:27:54.855Z,3.23
2018-02-02T02:30:23.023Z,3.00
2018-02-02T02:32:51.982Z,3.13
2018-02-02T02:35:20.133Z,3.60
2018-02-02T02:37:48.315Z,2.73
2018-02-02T02:40:16.486Z,3.00
2018-02-02T02:42:44.657Z,2.90
2018-02-02T02:45:12.841Z,2.33
2018-02-02T02:47:41.001Z,2.93
2018-02-02T02:50:09.163Z,2.10
2018-02-02T02:52:37.362Z,2.60
2018-02-02T02:55:05.537Z,2.53
2018-02-02T02:57:34.457Z,2.20
2018-02-02T03:00:02.626Z,2.27
2018-02-02T03:02:30.852Z,2.60
2018-02-02T03:04:59.010Z,2.90
2018-02-02T03:07:27.181Z,4.33
2018-02-02T03:09:55.337Z,2.80
2018-02-02T03:12:24.280Z,3.20
2018-02-02T03:14:52.453Z,3.40
2018-02-02T03:17:20.619Z,3.30
2018-02-02T03:19:48.774Z,3.73
2018-02-02T03:22:16.938Z,4.13
2018-02-02T03:24:45.871Z,3.97
2018-02-02T03:27:14.034Z,4.27
2018-02-02T03:29:42.228Z,3.90
2018-02-02T03:32:10.381Z,3.50
2018-02-02T03:34:38.558Z,3.63
2018-02-02T03:37:06.717Z,4.23
2018-02-02T03:39:34.906Z,4.23
2018-02-02T03:42:03.154Z,3.53
2018-02-02T03:44:32.086Z,4.97
2018-02-02T03:47:00.261Z,4.30
2018-02-02T03:49:28.422Z,3.67
2018-02-02T03:51:56.606Z,4.77
2018-02-02T03:54:24.800Z,4.57
2018-02-02T03:56:52.962Z,3.00
2018-02-02T03:59:21.156Z,4.37
2018-02-02T04:01:49.327Z,4.27
2018-02-02T04:04:17.489Z,5.03
2018-02-02T04:06:45.651Z,4.30
2018-02-02T04:09:13.861Z,4.43
2018-02-02T04:11:42.037Z,4.90
2018-02-02T04:14:10.231Z,5.17
2018-02-02T04:16:39.156Z,4.93
2018-02-02T04:19:07.310Z,6.40
2018-02-02T04:21:36.262Z,5.50
2018-02-02T04:24:04.418Z,4.97
2018-02-02T04:26:32.569Z,5.00
2018-02-02T04:29:00.718Z,6.00
2018-02-02T04:31:29.657Z,6.30
2018-02-02T04:33:57.849Z,5.90
2018-02-02T04:36:26.034Z,5.73
2018-02-02T04:38:54.214Z,4.90
2018-02-02T04:41:22.375Z,5.63
2018-02-02T04:43:50.543Z,6.10
2018-02-02T04:46:18.710Z,5.73
2018-02-02T04:48:47.650Z,6.47
2018-02-02T04:51:16.569Z,5.63
2018-02-02T04:53:44.733Z,5.60
2018-02-02T04:56:12.894Z,6.70
2018-02-02T04:58:41.813Z,5.77
2018-02-02T05:01:09.998Z,6.40
2018-02-02T05:03:38.171Z,6.37
2018-02-02T05:06:06.321Z,5.67
2018-02-02T05:08:34.491Z,7.23
2018-02-02T05:11:02.684Z,7.07
2018-02-02T05:13:30.883Z,5.93
2018-02-02T05:15:59.035Z,5.77
2018-02-02T05:18:27.210Z,6.67
2018-02-02T05:20:55.372Z,7.23
2018-02-02T05:23:23.545Z,7.70
2018-02-02T05:25:51.736Z,5.80
2018-02-02T05:28:19.909Z,5.77
2018-02-02T05:30:48.071Z,5.50
2018-02-02T05:33:16.237Z,6.30
2018-02-02T05:35:44.397Z,5.80
2018-02-02T05:38:13.316Z,5.10
2018-02-02T05:40:41.472Z,6.60
2018-02-02T05:43:09.760Z,6.20
2018-02-02T05:45:37.942Z,6.30
2018-02-02T05:48:06.106Z,4.70
2018-02-02T05:50:34.270Z,4.00
2018-02-02T05:53:03.201Z,3.50
2018-02-02T05:55:31.368Z,3.50
2018-02-02T05:57:59.525Z,3.90
2018-02-02T06:00:27.683Z,4.30
2018-02-02T06:02:56.617Z,5.00
2018-02-02T06:05:24.782Z,5.20
2018-02-02T06:07:52.930Z,4.97
2018-02-02T06:10:21.097Z,4.50
2018-02-02T06:12:50.050Z,4.40
2018-02-02T06:15:18.212Z,5.60
2018-02-02T06:17:46.401Z,4.90
2018-02-02T06:20:14.575Z,6.10
2018-02-02T06:22:42.743Z,6.20
2018-02-02T06:25:10.908Z,7.40
2018-02-02T06:27:39.079Z,7.63
2018-02-02T06:30:07.245Z,9.17
2018-02-02T06:32:35.413Z,7.70
2018-02-02T06:35:03.598Z,8.00
2018-02-02T06:37:31.758Z,9.13
2018-02-02T06:39:59.910Z,9.10
2018-02-02T06:42:28.074Z,11.10
2018-02-02T06:44:57.013Z,9.53
2018-02-02T06:47:25.165Z,9.03
2018-02-02T06:49:53.334Z,9.33
2018-02-02T06:52:21.548Z,8.80
2018-02-02T06:54:49.727Z,9.07
2018-02-02T06:57:17.915Z,8.50
2018-02-02T06:59:46.109Z,8.70
2018-02-02T07:02:15.067Z,8.20
2018-02-02T07:04:43.329Z,9.07
2018-02-02T07:07:11.572Z,7.80
2018-02-02T07:09:39.780Z,9.40
2018-02-02T07:12:08.015Z,9.27
2018-02-02T07:14:36.946Z,8.50
2018-02-02T07:17:05.125Z,8.87
2018-02-02T07:19:33.310Z,9.23
2018-02-02T07:22:01.486Z,8.37
2018-02-02T07:24:29.651Z,9.07
2018-02-02T07:26:57.824Z,8.43
2018-02-02T07:29:25.985Z,9.23
2018-02-02T07:31:54.154Z,9.00
2018-02-02T07:34:22.318Z,8.30
2018-02-02T07:36:50.493Z,9.17
2018-02-02T07:39:18.662Z,9.20
2018-02-02T07:41:46.830Z,9.60
2018-02-02T07:44:15.762Z,9.60
2018-02-02T07:46:43.935Z,9.40
2018-02-02T07:49:12.112Z,10.20
2018-02-02T07:51:40.275Z,9.23
2018-02-02T07:54:08.442Z,10.30
2018-02-02T07:56:36.619Z,8.83
2018-02-02T07:59:04.778Z,8.83
2018-02-02T08:01:32.943Z,10.33
2018-02-02T08:04:01.882Z,8.13
2018-02-02T08:06:30.054Z,9.70
2018-02-02T08:08:58.232Z,8.43
2018-02-02T08:11:26.386Z,8.00
2018-02-02T08:13:54.556Z,7.60
2018-02-02T08:16:22.757Z,7.20
2018-02-02T08:18:50.930Z,8.17
2018-02-02T08:21:19.860Z,7.80
2018-02-02T08:23:48.793Z,9.43
2018-02-02T08:26:16.982Z,33.47
2018-02-02T08:28:45.150Z,33.90
2018-02-02T08:31:13.328Z,12.40
2018-02-02T08:33:41.544Z,14.30
2018-02-02T08:36:09.708Z,10.43
2018-02-02T08:38:37.906Z,13.03
2018-02-02T08:41:06.845Z,11.90
2018-02-02T08:43:35.501Z,14.60
2018-02-02T08:46:03.694Z,12.03
2018-02-02T08:48:31.887Z,14.07
2018-02-02T08:51:00.111Z,12.60
2018-02-02T08:53:29.069Z,11.30
2018-02-02T08:55:57.254Z,11.30
2018-02-02T08:58:25.451Z,12.30
2018-02-02T09:01:00.034Z,11.97
2018-02-02T09:03:29.006Z,11.20
2018-02-02T09:05:57.180Z,11.20
2018-02-02T09:08:25.361Z,10.80
2018-02-02T09:10:53.561Z,10.60
2018-02-02T09:13:22.034Z,11.50
2018-02-02T09:15:50.210Z,14.30
2018-02-02T09:18:18.383Z,14.20
2018-02-02T09:20:46.581Z,13.27
2018-02-02T09:23:14.825Z,13.57
2018-02-02T09:25:43.005Z,12.70
2018-02-02T09:28:11.200Z,12.43
2018-02-02T09:30:39.531Z,11.77
2018-02-02T09:33:07.718Z,12.40
2018-02-02T09:35:35.926Z,11.50
2018-02-02T09:38:04.105Z,12.53
2018-02-02T09:40:32.418Z,11.03
2018-02-02T09:43:00.620Z,12.83
2018-02-02T09:45:28.823Z,12.93
2018-02-02T09:47:57.015Z,12.20
2018-02-02T09:50:25.981Z,12.97
2018-02-02T09:52:54.187Z,12.17
2018-02-02T09:55:22.399Z,14.13
2018-02-02T09:57:50.633Z,12.90
2018-02-02T10:00:18.848Z,14.07
2018-02-02T10:02:47.051Z,14.37
2018-02-02T10:05:15.238Z,12.20
2018-02-02T10:07:43.408Z,13.87
2018-02-02T10:10:11.597Z,14.67
2018-02-02T10:12:39.815Z,12.50
2018-02-02T10:15:08.070Z,13.30
2018-02-02T10:17:37.031Z,11.40
2018-02-02T10:20:05.230Z,11.67
2018-02-02T10:22:33.442Z,10.83
2018-02-02T10:25:01.784Z,10.20
2018-02-02T10:27:29.960Z,10.70
2018-02-02T10:29:58.180Z,11.20
2018-02-02T10:32:26.367Z,11.10
2018-02-02T10:34:54.587Z,9.30
2018-02-02T10:37:23.558Z,10.97
2018-02-02T10:39:51.750Z,12.03
2018-02-02T10:42:19.935Z,10.20
2018-02-02T10:44:48.925Z,11.13
2018-02-02T10:47:17.164Z,10.70
2018-02-02T10:49:45.400Z,10.23
2018-02-02T10:52:13.784Z,10.40
2018-02-02T10:54:41.994Z,10.53
2018-02-02T10:57:10.284Z,9.93
2018-02-02T10:59:38.456Z,10.67
2018-02-02T11:02:12.356Z,10.83
2018-02-02T11:04:40.560Z,11.70
2018-02-02T11:07:08.760Z,18.40
2018-02-02T11:09:37.760Z,13.63
2018-02-02T11:12:05.952Z,9.50
2018-02-02T11:14:34.140Z,11.37
2018-02-02T11:17:03.348Z,9.60
2018-02-02T11:19:31.518Z,10.93
2018-02-02T11:21:59.734Z,10.73
2018-02-02T11:24:27.921Z,10.63
2018-02-02T11:26:56.867Z,11.23
2018-02-02T11:29:25.046Z,11.30
2018-02-02T11:31:53.271Z,11.60
2018-02-02T11:34:21.595Z,10.97
2018-02-02T11:36:49.766Z,12.43
2018-02-02T11:39:17.953Z,14.40
2018-02-02T11:41:46.147Z,12.33
2018-02-02T11:44:14.345Z,14.43
2018-02-02T11:46:43.307Z,13.07
2018-02-02T11:49:11.515Z,12.57
2018-02-02T11:51:40.510Z,12.53
2018-02-02T11:54:08.750Z,12.40
2018-02-02T11:56:37.022Z,11.97
2018-02-02T11:59:05.350Z,12.47
2018-02-02T12:01:33.611Z,12.93
2018-02-02T12:04:02.627Z,12.93
2018-02-02T12:06:30.910Z,12.00
2018-02-02T12:08:59.114Z,12.17
2018-02-02T12:11:27.339Z,10.77
2018-02-02T12:13:56.296Z,12.50
2018-02-02T12:16:24.592Z,11.73
2018-02-02T12:18:53.686Z,11.00
2018-02-02T12:21:21.983Z,12.30
2018-02-02T12:23:53.426Z,11.60
2018-02-02T12:29:24.803Z,10.40
2018-02-02T12:34:53.580Z,12.40
2018-02-02T12:37:21.884Z,12.30
2018-02-02T12:39:50.890Z,15.83
2018-02-02T12:42:19.060Z,15.17
2018-02-02T12:44:47.280Z,13.63
2018-02-02T12:47:15.532Z,12.57
2018-02-02T12:50:01.740Z,10.60
2018-02-02T12:52:29.939Z,8.30
2018-02-02T12:54:58.119Z,9.57
2018-02-02T12:57:26.378Z,7.80
2018-02-02T12:59:54.608Z,8.33
2018-02-02T13:02:22.766Z,9.00
2018-02-02T13:04:51.754Z,10.10
2018-02-02T13:07:19.927Z,10.13
2018-02-02T13:09:48.138Z,8.83
2018-02-02T13:12:16.343Z,9.57
2018-02-02T13:14:44.564Z,10.10
2018-02-02T13:17:13.548Z,12.40
2018-02-02T13:19:41.736Z,11.87
2018-02-02T13:22:10.743Z,11.40
2018-02-02T13:24:38.941Z,11.50
2018-02-02T13:27:07.141Z,11.67
2018-02-02T13:29:35.360Z,12.93
2018-02-02T13:32:03.587Z,12.93
2018-02-02T13:34:31.779Z,11.43
2018-02-02T13:37:00.034Z,12.73
2018-02-02T13:39:28.289Z,12.77
2018-02-02T13:41:56.520Z,11.23
2018-02-02T13:44:24.748Z,10.53
2018-02-02T13:46:52.968Z,11.53
2018-02-02T13:49:21.186Z,11.23
2018-02-02T13:51:49.387Z,12.67
2018-02-02T13:54:17.668Z,11.07
2018-02-02T13:56:45.886Z,12.50
2018-02-02T13:59:14.836Z,14.47
2018-02-02T14:01:43.030Z,13.40
2018-02-02T14:04:11.285Z,12.03
2018-02-02T14:06:39.466Z,11.80
2018-02-02T14:09:07.663Z,13.20
2018-02-02T14:11:35.830Z,13.13
2018-02-02T14:14:04.018Z,12.80
2018-02-02T14:16:32.219Z,13.97
2018-02-02T14:19:00.459Z,13.00
2018-02-02T14:21:28.750Z,12.53
2018-02-02T14:23:57.731Z,15.50
2018-02-02T14:26:25.927Z,13.43
2018-02-02T14:28:54.899Z,16.07
2018-02-02T14:31:23.070Z,17.47
2018-02-02T14:33:51.355Z,13.80
2018-02-02T14:36:19.537Z,15.37
2018-02-02T14:38:47.742Z,17.17
2018-02-02T14:41:15.990Z,18.77
2018-02-02T14:43:44.239Z,15.60
2018-02-02T14:46:12.437Z,15.73
2018-02-02T14:48:40.636Z,15.13
2018-02-02T14:51:08.889Z,15.50
2018-02-02T14:53:37.141Z,15.30
2018-02-02T14:56:05.335Z,14.23
2018-02-02T14:58:33.526Z,14.50
2018-02-02T15:01:02.514Z,15.30
2018-02-02T15:03:31.512Z,15.27
2018-02-02T15:06:00.471Z,14.80
2018-02-02T15:08:28.687Z,14.97
2018-02-02T15:10:57.730Z,15.97
2018-02-02T15:13:25.899Z,17.23
2018-02-02T15:15:54.090Z,16.90
2018-02-02T15:18:22.290Z,15.53
2018-02-02T15:20:50.495Z,17.67
2018-02-02T15:23:18.728Z,15.47
2018-02-02T15:25:46.921Z,18.93
2018-02-02T15:28:15.895Z,19.00
2018-02-02T15:30:44.111Z,19.47
2018-02-02T15:33:13.073Z,19.70
2018-02-02T15:35:41.246Z,20.20
2018-02-02T15:38:09.435Z,20.63
2018-02-02T15:40:38.381Z,17.17
2018-02-02T15:43:07.379Z,18.73
2018-02-02T15:45:36.398Z,17.67
2018-02-02T16:01:04.648Z,20.00
2018-02-02T16:03:33.622Z,19.83
2018-02-02T16:06:01.854Z,18.40
2018-02-02T16:08:30.806Z,20.63
2018-02-02T16:10:59.093Z,19.70
2018-02-02T16:13:27.933Z,20.70
2018-02-02T16:15:56.122Z,21.40
2018-02-02T16:18:24.830Z,18.40
2018-02-02T16:20:53.027Z,19.47
2018-02-02T16:23:21.248Z,19.57
2018-02-02T16:25:49.502Z,20.23
2018-02-02T16:28:18.455Z,20.27
2018-02-02T16:30:46.671Z,18.07
2018-02-02T16:33:15.611Z,19.67
2018-02-02T16:35:43.826Z,19.20
2018-02-02T16:38:12.118Z,20.57
2018-02-02T16:40:41.082Z,19.00
2018-02-02T16:43:09.288Z,20.23
2018-02-02T16:45:38.262Z,20.90
2018-02-02T16:48:06.456Z,19.70
2018-02-02T16:50:35.439Z,19.47
2018-02-02T16:53:04.403Z,19.23
2018-02-02T16:55:32.634Z,16.83
2018-02-02T16:58:00.853Z,19.70
2018-02-02T17:00:29.164Z,18.47
2018-02-02T17:02:58.180Z,18.60
2018-02-02T17:05:26.374Z,17.57
2018-02-02T17:07:54.598Z,17.80
2018-02-02T17:10:22.823Z,16.57
2018-02-02T17:12:51.070Z,17.50
2018-02-02T17:15:19.242Z,18.30
2018-02-02T17:17:48.185Z,18.23
2018-02-02T17:20:16.376Z,17.90
2018-02-02T17:22:44.564Z,19.13
2018-02-02T17:25:12.742Z,18.50
2018-02-02T17:27:40.938Z,17.13
2018-02-02T17:30:09.914Z,18.03
2018-02-02T17:32:38.138Z,18.10
2018-02-02T17:35:06.379Z,13.37
2018-02-02T17:37:35.360Z,14.77
2018-02-02T17:40:03.552Z,15.27
2018-02-02T17:42:32.492Z,14.40
2018-02-02T17:45:00.675Z,13.63
2018-02-02T17:47:28.857Z,13.90
2018-02-02T17:49:57.022Z,14.20
2018-02-02T17:52:25.202Z,14.07
2018-02-02T17:54:53.380Z,13.20
2018-02-02T17:57:21.598Z,15.30
2018-02-02T17:59:49.797Z,13.50
2018-02-02T18:02:18.437Z,13.93
2018-02-02T18:04:46.675Z,13.70
2018-02-02T18:07:14.897Z,14.43
2018-02-02T18:09:43.849Z,14.20
2018-02-02T18:12:12.036Z,15.07
2018-02-02T18:14:40.210Z,15.30
2018-02-02T18:17:08.427Z,13.60
2018-02-02T18:19:36.632Z,15.70
2018-02-02T18:22:04.813Z,16.50
2018-02-02T18:24:32.997Z,14.73
2018-02-02T18:27:01.943Z,14.73
2018-02-02T18:29:30.122Z,15.37
2018-02-02T18:31:58.302Z,15.90
2018-02-02T18:34:26.465Z,16.90
2018-02-02T18:36:55.446Z,16.07
2018-02-02T18:39:24.390Z,17.60
2018-02-02T18:41:52.607Z,13.73
2018-02-02T18:44:20.797Z,14.63
2018-02-02T18:46:49.736Z,17.10
2018-02-02T18:49:17.923Z,23.03
2018-02-02T18:51:46.103Z,21.30
2018-02-02T18:54:14.586Z,17.87
2018-02-02T18:56:43.558Z,19.50
2018-02-02T18:59:11.734Z,19.63
2018-02-02T19:01:39.909Z,18.57
2018-02-02T19:04:08.102Z,19.43
2018-02-02T19:06:36.266Z,18.50
2018-02-02T19:09:04.509Z,18.87
2018-02-02T19:11:32.683Z,20.03
2018-02-02T19:14:00.850Z,18.90
2018-02-02T19:16:29.041Z,21.23
2018-02-02T19:18:57.222Z,19.63
2018-02-02T19:21:25.395Z,19.80
2018-02-02T19:23:53.583Z,19.37
2018-02-02T19:26:21.774Z,22.57
2018-02-02T19:28:49.938Z,21.60
2018-02-02T19:31:18.147Z,22.00
2018-02-02T19:33:47.098Z,19.50
2018-02-02T19:36:15.278Z,21.77
2018-02-02T19:38:43.453Z,20.20
2018-02-02T19:41:11.656Z,22.23
2018-02-02T19:43:39.883Z,24.23
2018-02-02T19:46:08.069Z,25.00
2018-02-02T19:48:36.287Z,24.23
2018-02-02T19:51:05.231Z,24.70
2018-02-02T19:53:33.407Z,22.47
2018-02-02T19:56:01.620Z,21.83
2018-02-02T19:58:29.853Z,23.57
2018-02-02T20:00:58.042Z,23.77
2018-02-02T20:03:26.206Z,24.90
2018-02-02T20:05:54.364Z,23.50
2018-02-02T20:08:22.533Z,23.30
2018-02-02T20:10:50.714Z,26.30
2018-02-02T20:13:23.606Z,27.90
2018-02-02T20:15:55.503Z,27.90
2018-02-02T20:18:23.704Z,24.77
2018-02-02T20:20:53.156Z,25.43
2018-02-02T20:23:21.731Z,25.60
2018-02-02T20:25:51.007Z,26.77
2018-02-02T20:28:21.141Z,26.20
2018-02-02T20:30:49.331Z,24.90
2018-02-02T20:33:17.509Z,24.23
2018-02-02T20:35:45.682Z,26.00
2018-02-02T20:38:13.910Z,24.93
2018-02-02T20:40:42.863Z,25.00
2018-02-02T20:43:11.045Z,24.57
2018-02-02T20:45:39.458Z,24.97
2018-02-02T20:48:08.410Z,23.90
2018-02-02T20:50:36.589Z,22.47
2018-02-02T20:53:04.770Z,27.87
2018-02-02T20:55:33.015Z,28.20
2018-02-02T20:58:01.180Z,38.13
2018-02-02T21:00:29.347Z,29.83
2018-02-02T21:02:57.521Z,26.40
2018-02-02T21:05:25.694Z,24.60
2018-02-02T21:07:54.248Z,21.60
2018-02-02T21:10:22.427Z,21.90
2018-02-02T21:12:50.596Z,21.13
2018-02-02T21:15:18.780Z,22.47
2018-02-02T21:17:46.983Z,22.47
2018-02-02T21:20:15.158Z,20.67
2018-02-02T21:22:43.360Z,21.67
2018-02-02T21:25:11.542Z,21.73
2018-02-02T21:27:39.713Z,23.20
2018-02-02T21:30:07.894Z,22.60
2018-02-02T21:32:36.066Z,22.47
2018-02-02T21:35:04.235Z,23.60
2018-02-02T21:37:32.401Z,21.47
2018-02-02T21:40:00.597Z,24.40
2018-02-02T21:42:28.769Z,25.67
2018-02-02T21:44:56.947Z,25.80
2018-02-02T21:47:25.122Z,26.70
2018-02-02T21:49:53.286Z,27.23
2018-02-02T21:52:21.482Z,27.03
2018-02-02T21:54:49.671Z,29.50
2018-02-02T21:57:17.843Z,30.13
2018-02-02T21:59:46.009Z,28.97
2018-02-02T22:02:14.189Z,31.13
2018-02-02T22:04:42.351Z,30.77
2018-02-02T22:07:10.520Z,28.83
2018-02-02T22:09:38.686Z,32.57
2018-02-02T22:12:06.852Z,34.10
2018-02-02T22:14:35.026Z,36.80
2018-02-02T22:17:03.225Z,34.80
2018-02-02T22:19:31.419Z,33.07
2018-02-02T22:22:00.365Z,33.10
2018-02-02T22:24:28.590Z,34.23
2018-02-02T22:26:57.525Z,31.73
2018-02-02T22:29:25.734Z,32.20
2018-02-02T22:31:53.929Z,36.10
2018-02-02T22:34:22.889Z,35.47
2018-02-02T22:36:51.056Z,33.60
2018-02-02T22:39:19.233Z,32.57
2018-02-02T22:41:47.408Z,33.17
2018-02-02T22:44:15.583Z,31.07
2018-02-02T22:46:43.755Z,33.10
2018-02-02T22:49:11.932Z,32.40
2018-02-02T22:51:40.109Z,35.07
2018-02-02T22:54:08.273Z,35.40
2018-02-02T22:56:36.427Z,32.07
2018-02-02T22:59:04.610Z,31.67
2018-02-02T23:01:32.790Z,34.77
2018-02-02T23:04:00.956Z,32.50
2018-02-02T23:06:29.131Z,34.37
2018-02-02T23:08:57.310Z,29.80
2018-02-02T23:11:25.489Z,31.00
2018-02-02T23:13:53.658Z,33.97
2018-02-02T23:16:21.858Z,33.33
2018-02-02T23:18:50.033Z,34.13
2018-02-02T23:21:18.213Z,29.10
2018-02-02T23:23:46.383Z,30.70
2018-02-02T23:26:14.550Z,34.50
2018-02-02T23:28:42.737Z,31.20
2018-02-02T23:31:10.914Z,30.90
2018-02-02T23:33:39.088Z,32.03
2018-02-02T23:36:07.291Z,32.20
2018-02-02T23:38:36.236Z,33.00
2018-02-02T23:41:04.417Z,42.53
2018-02-02T23:43:32.605Z,43.70
2018-02-02T23:46:00.810Z,33.87
2018-02-02T23:48:29.777Z,33.10
2018-02-02T23:50:57.936Z,31.43
2018-02-02T23:53:26.110Z,30.47
2018-02-02T23:55:54.288Z,30.10
2018-02-02T23:58:22.479Z,32.13
